createdAt,value
2018-12-09T01:05:17.512Z,10.44
2018-12-09T01:10:20.855Z,10.55
2018-12-09T01:15:24.956Z,10.71
2018-12-09T01:20:28.278Z,10.73
2018-12-09T01:25:32.417Z,10.93
2018-12-09T01:30:36.530Z,10.86
2018-12-09T02:32:42.326Z,10.48
2018-12-09T02:37:45.668Z,10.89
2018-12-09T02:42:49.011Z,10.80
2018-12-09T02:47:52.343Z,10.78
2018-12-09T02:52:55.676Z,10.80
2018-12-09T02:57:59.004Z,10.55
2018-12-09T04:00:28.825Z,10.28
2018-12-09T04:05:32.932Z,10.53
2018-12-09T04:10:37.041Z,10.50
2018-12-09T04:15:41.100Z,10.59
2018-12-09T04:20:44.461Z,10.83
2018-12-09T04:25:47.805Z,10.64
2018-12-09T06:00:39.781Z,6.57
2018-12-09T06:05:43.111Z,6.83
2018-12-09T06:10:46.452Z,6.83
2018-12-09T06:15:49.783Z,6.69
2018-12-09T06:20:53.119Z,6.78
2018-12-09T06:25:56.448Z,6.89
2018-12-09T06:30:59.785Z,6.92
2018-12-09T06:36:03.126Z,7.14
2018-12-09T06:41:06.460Z,6.86
2018-12-09T06:46:09.801Z,7.02
2018-12-09T06:51:13.135Z,7.05
2018-12-09T06:56:16.472Z,7.08
2018-12-09T07:01:20.567Z,7.08
2018-12-09T07:06:23.896Z,7.01
2018-12-09T07:11:27.245Z,6.89
2018-12-09T07:16:30.585Z,6.98
2018-12-09T07:21:33.924Z,7.05
2018-12-09T07:26:37.248Z,7.04
2018-12-09T07:31:41.350Z,7.02
2018-12-09T07:36:44.687Z,7.21
2018-12-09T07:41:48.779Z,7.17
2018-12-09T07:46:52.123Z,7.22
2018-12-09T07:51:55.464Z,7.27
2018-12-09T07:56:59.561Z,7.31
2018-12-09T08:02:02.961Z,7.31
2018-12-09T08:07:06.292Z,7.34
2018-12-09T08:12:10.386Z,7.21
2018-12-09T08:17:13.718Z,7.33
2018-12-09T08:22:17.052Z,7.42
2018-12-09T08:27:21.153Z,7.47
2018-12-09T08:32:24.479Z,7.48
2018-12-09T08:37:27.862Z,7.37
2018-12-09T08:42:31.194Z,7.39
2018-12-09T08:47:34.525Z,7.50
2018-12-09T08:52:38.621Z,7.61
2018-12-09T08:57:41.958Z,7.59
2018-12-09T09:02:46.108Z,7.73
2018-12-09T09:07:50.193Z,7.80
2018-12-09T09:12:53.509Z,8.08
2018-12-09T09:17:56.841Z,8.06
2018-12-09T09:23:00.940Z,7.94
2018-12-09T09:28:04.269Z,8.00
2018-12-09T09:33:07.591Z,8.05
2018-12-09T09:38:10.921Z,8.08
2018-12-09T09:43:15.027Z,8.50
2018-12-09T09:48:18.362Z,8.68
2018-12-09T09:53:21.694Z,8.52
2018-12-09T09:58:25.032Z,8.61
2018-12-09T10:03:28.630Z,8.62
2018-12-09T10:08:32.026Z,8.68
2018-12-09T10:13:35.360Z,8.82
2018-12-09T10:18:38.694Z,8.91
2018-12-09T10:23:42.189Z,9.14
2018-12-09T10:28:45.516Z,9.07
2018-12-09T10:33:49.606Z,9.03
2018-12-09T10:38:52.193Z,8.79
2018-12-09T10:43:55.702Z,9.03
2018-12-09T10:49:06.067Z,8.89
2018-12-09T10:54:09.398Z,8.99
2018-12-09T10:59:14.693Z,8.88
2018-12-09T11:04:18.051Z,9.13
2018-12-09T11:09:21.392Z,8.86
2018-12-09T11:14:24.727Z,8.64
2018-12-09T11:19:28.070Z,8.74
2018-12-09T11:24:32.182Z,8.77
2018-12-09T11:29:35.522Z,8.92
2018-12-09T11:34:38.852Z,8.91
2018-12-09T11:39:55.280Z,8.99
2018-12-09T11:45:01.917Z,8.85
2018-12-09T11:50:05.466Z,8.81
2018-12-09T11:55:08.813Z,8.93
2018-12-09T12:00:12.367Z,8.78
2018-12-09T12:05:15.955Z,8.59
2018-12-09T12:10:19.618Z,8.31
2018-12-09T12:15:23.317Z,8.29
2018-12-09T12:20:28.154Z,8.02
2018-12-09T12:25:31.597Z,8.12
2018-12-09T12:30:39.655Z,8.10
2018-12-09T12:35:43.084Z,7.93
2018-12-09T12:40:47.191Z,7.74
2018-12-09T12:45:50.596Z,7.43
2018-12-09T12:50:54.646Z,7.71
2018-12-09T12:55:58.188Z,7.71
2018-12-09T13:01:02.304Z,7.62
2018-12-09T13:06:05.732Z,7.83
2018-12-09T13:11:10.048Z,7.83
2018-12-09T13:16:13.404Z,8.15
2018-12-09T13:21:16.761Z,7.83
2018-12-09T13:26:20.096Z,7.93
2018-12-09T13:31:23.436Z,8.06
2018-12-09T13:36:26.917Z,7.80
2018-12-09T13:41:30.262Z,7.88
2018-12-09T13:46:33.618Z,8.06
2018-12-09T13:51:37.052Z,8.11
2018-12-09T13:56:40.985Z,8.07
2018-12-09T14:01:45.099Z,8.09
2018-12-09T14:06:48.462Z,8.08
2018-12-09T14:11:51.803Z,8.25
2018-12-09T14:16:56.688Z,8.45
2018-12-09T14:21:58.538Z,8.43
2018-12-09T14:27:05.286Z,8.32
2018-12-09T14:32:34.324Z,8.25
2018-12-09T14:37:37.687Z,8.40
2018-12-09T14:42:41.062Z,8.02
2018-12-09T14:47:44.404Z,8.20
2018-12-09T14:52:48.517Z,8.17
2018-12-09T14:57:51.856Z,8.04
2018-12-09T15:02:59.237Z,7.83
2018-12-09T15:08:02.675Z,7.73
2018-12-09T15:13:05.995Z,7.15
2018-12-09T15:18:09.351Z,7.28
2018-12-09T15:23:12.716Z,7.29
2018-12-09T15:28:16.063Z,7.41
2018-12-09T15:33:19.441Z,7.08
2018-12-09T15:38:22.763Z,7.17
2018-12-09T15:43:26.218Z,7.13
2018-12-09T15:48:29.499Z,7.25
2018-12-09T15:53:32.866Z,7.27
2018-12-09T15:58:36.977Z,7.16
2018-12-09T16:03:40.305Z,7.18
2018-12-09T16:08:44.412Z,7.22
2018-12-09T16:13:48.085Z,7.37
2018-12-09T16:18:57.684Z,7.56
2018-12-09T16:24:11.142Z,7.42
2018-12-09T16:29:14.633Z,7.51
2018-12-09T16:34:17.961Z,7.51
2018-12-09T16:39:21.331Z,7.17
2018-12-09T16:44:24.677Z,7.11
2018-12-09T16:49:28.029Z,7.22
2018-12-09T16:54:32.331Z,6.93
2018-12-09T16:59:35.669Z,7.12
2018-12-09T17:04:39.760Z,7.20
2018-12-09T17:09:43.136Z,7.07
2018-12-09T17:14:46.473Z,7.22
2018-12-09T17:19:49.872Z,7.10
2018-12-09T17:25:01.981Z,7.34
2018-12-09T17:30:05.312Z,7.23
2018-12-09T17:35:08.649Z,7.24
2018-12-09T17:40:12.901Z,7.29
2018-12-09T17:45:26.016Z,7.33
2018-12-09T17:50:29.344Z,7.51
2018-12-09T17:55:33.465Z,7.44
2018-12-09T18:00:36.812Z,7.48
2018-12-09T18:05:40.280Z,7.36
2018-12-09T18:10:43.621Z,7.41
2018-12-09T18:15:47.722Z,7.51
2018-12-09T18:20:51.069Z,7.46
2018-12-09T18:25:54.445Z,7.69
2018-12-09T18:30:57.870Z,7.55
2018-12-09T18:36:02.259Z,7.68
2018-12-09T18:41:11.352Z,7.95
2018-12-09T18:46:15.464Z,7.72
2018-12-09T18:51:18.800Z,7.82
2018-12-09T18:56:27.082Z,7.36
2018-12-09T19:01:36.040Z,7.85
2018-12-09T19:06:39.377Z,7.63
2018-12-09T19:11:43.539Z,7.72
2018-12-09T19:16:46.880Z,7.62
2018-12-09T19:21:50.203Z,7.69
2018-12-09T19:26:53.570Z,7.40
2018-12-09T19:31:56.935Z,7.67
2018-12-09T19:37:05.051Z,7.46
2018-12-09T19:42:08.552Z,7.62
2018-12-09T19:47:11.905Z,7.61
2018-12-09T19:52:16.013Z,7.73
2018-12-09T19:57:19.539Z,7.57
2018-12-09T20:02:32.136Z,7.43
2018-12-09T20:07:46.593Z,7.54
2018-12-09T20:12:49.917Z,7.41
2018-12-09T20:17:53.296Z,7.59
2018-12-09T20:23:08.887Z,7.50
2018-12-09T20:28:12.973Z,7.77
2018-12-09T20:33:16.317Z,7.66
2018-12-09T20:38:21.321Z,7.39
2018-12-09T20:43:32.313Z,7.84
2018-12-09T20:48:35.638Z,7.74
2018-12-09T20:53:53.241Z,7.96
2018-12-09T20:58:56.568Z,7.91
2018-12-09T21:04:15.810Z,8.00
2018-12-09T21:09:24.612Z,7.88
2018-12-09T21:14:27.962Z,7.69
2018-12-09T21:19:31.285Z,7.69
2018-12-09T21:24:34.616Z,7.43
2018-12-09T21:29:37.956Z,7.10
2018-12-09T21:34:41.293Z,6.75
2018-12-09T21:39:45.381Z,6.74
2018-12-09T21:44:49.726Z,6.78
2018-12-09T21:49:53.119Z,6.65
2018-12-09T21:54:56.470Z,6.42
2018-12-09T22:00:00.574Z,6.57
2018-12-09T22:05:03.904Z,6.78
2018-12-09T22:10:07.245Z,6.71
2018-12-09T22:15:10.600Z,6.87
2018-12-09T22:20:13.944Z,6.70
2018-12-09T22:25:17.326Z,6.93
2018-12-09T22:30:26.093Z,6.95
2018-12-09T22:35:29.428Z,7.22
2018-12-09T22:40:36.898Z,7.54
2018-12-09T22:45:41.238Z,7.41
2018-12-09T22:50:44.573Z,7.28
2018-12-09T22:55:48.680Z,6.87
2018-12-09T23:31:42.002Z,6.87
2018-12-09T23:36:46.092Z,7.25
2018-12-09T23:41:49.409Z,7.21
2018-12-09T23:46:52.733Z,7.26
2018-12-09T23:51:56.072Z,6.79
2018-12-09T23:56:59.404Z,6.23
